Ellsworth, ME (04605)

6:38 PM EDT on April 26, 2017 (GMT -0400)
Downtown Ellsworth | | Change Station

Elev 52 ft 44.54 °N, 68.42 °W | Updated 2 seconds ago

Rain
Rain
56.0 °F
Feels Like 56.0 °F
N
6.0
Wind Variable Wind from SSW
Gusts 15.0 mph

Today
High -- | Low -- °F
--% Chance of Precip.
Yesterday
High -- | Low -- °F
Precip. -- in
Pressure 29.99 in
Visibility 6.0 miles
Clouds Overcast 500 ft
Dew Point 56 °F
Humidity 100%
Rainfall 1.34 in
Snow Depth Not available.
5:31 AM 7:32 PM
New Moon, 0% visible
METAR KBHB 262156Z AUTO 16016KT 6SM -RA BR OVC005 13/13 A2997 RMK AO2 PK WND 15027/2140 SLP154 P0015 T01330128
Pressure 29.99 in
Visibility 6.0 miles
Clouds Overcast 500 ft
Dew Point 56 °F
Humidity 100%
Rainfall 1.34 in
Snow Depth Not available.
5:31 AM 7:32 PM
New Moon, 0% visible
METAR KBHB 262156Z AUTO 16016KT 6SM -RA BR OVC005 13/13 A2997 RMK AO2 PK WND 15027/2140 SLP154 P0015 T01330128

Get Severe Weather Alerts

Thanks for signing up!

Be on the lookout for a verification email in your inbox.

You'll start receiving the daily forecast at 8 AM.

×

10-Day Weather Forecast

Almanac

Astronomy

Apr. 26, 2017 Rise Set
Actual Time
Civil Twilight
Nautical Twilight
Astronomical Twilight
Moon
Length of Visible Light
Length of Day
Tomorrow will be .
, % of the Moon is Illuminated

Today's Extremes

State Highs State Lows

Community

WunderPhotos

WunderBlog® & News

Nearby

Air Quality

  Air Quality AQ Index Pollutant
Not available.

Snow Depth

Station Depth Elevation

Earthquake Activity

City Distance Mag. Time & Date
Minimum magnitude displayed is 2.5.

Coastal Water Temperatures

Place Temperature

Stations

Nearby Weather Stations

Station Location Temp. Windchill Dew Point Humidity Wind Precip. Elev Updated Type
                   

Watches & Warnings

There are currently no watches in effect.